sensor_id;sensor_type;location;lat;lon;timestamp;P1;durP1;ratioP1;P2;durP2;ratioP2
26177;SDS011;13924;47.670;10.310;2022-12-18T00:12:44;117.5;;;27.0;;
26177;SDS011;13924;47.670;10.310;2022-12-18T00:18:11;173.6;;;21.1;;
26177;SDS011;13924;47.670;10.310;2022-12-18T00:23:33;181.8;;;22.5;;
26177;SDS011;13924;47.670;10.310;2022-12-18T00:29:14;90.0;;;21.4;;
26177;SDS011;13924;47.670;10.310;2022-12-18T00:34:37;83.0;;;20.6;;
26177;SDS011;13924;47.670;10.310;2022-12-18T00:43:02;376.3;;;35.2;;
26177;SDS011;13924;47.670;10.310;2022-12-18T00:48:08;232.1;;;23.0;;
26177;SDS011;13924;47.670;10.310;2022-12-18T00:53:26;163.7;;;23.5;;
26177;SDS011;13924;47.670;10.310;2022-12-18T00:58:42;104.8;;;23.2;;
26177;SDS011;13924;47.670;10.310;2022-12-18T01:04:21;123.5;;;21.2;;
26177;SDS011;13924;47.670;10.310;2022-12-18T01:09:49;103.2;;;23.1;;
26177;SDS011;13924;47.670;10.310;2022-12-18T01:15:26;169.6;;;24.6;;
26177;SDS011;13924;47.670;10.310;2022-12-18T01:22:33;449.3;;;38.5;;
26177;SDS011;13924;47.670;10.310;2022-12-18T01:27:37;100.1;;;24.9;;
26177;SDS011;13924;47.670;10.310;2022-12-18T01:32:49;277.5;;;27.3;;
26177;SDS011;13924;47.670;10.310;2022-12-18T01:39:25;217.5;;;30.6;;
26177;SDS011;13924;47.670;10.310;2022-12-18T01:45:04;158.4;;;23.6;;
26177;SDS011;13924;47.670;10.310;2022-12-18T01:56:12;267.8;;;22.9;;
26177;SDS011;13924;47.670;10.310;2022-12-18T02:01:22;186.6;;;22.9;;
26177;SDS011;13924;47.670;10.310;2022-12-18T02:06:44;624.6;;;44.9;;
26177;SDS011;13924;47.670;10.310;2022-12-18T02:12:29;500.8;;;29.2;;
26177;SDS011;13924;47.670;10.310;2022-12-18T02:20:26;212.1;;;33.3;;
26177;SDS011;13924;47.670;10.310;2022-12-18T02:26:02;87.4;;;22.3;;
26177;SDS011;13924;47.670;10.310;2022-12-18T02:31:35;76.1;;;18.4;;
26177;SDS011;13924;47.670;10.310;2022-12-18T02:39:28;175.2;;;29.2;;
26177;SDS011;13924;47.670;10.310;2022-12-18T02:44:42;142.9;;;20.0;;
26177;SDS011;13924;47.670;10.310;2022-12-18T02:49:55;113.2;;;18.5;;
26177;SDS011;13924;47.670;10.310;2022-12-18T02:55:11;91.2;;;17.1;;
26177;SDS011;13924;47.670;10.310;2022-12-18T03:00:25;136.2;;;18.3;;
26177;SDS011;13924;47.670;10.310;2022-12-18T03:05:31;132.7;;;18.9;;
26177;SDS011;13924;47.670;10.310;2022-12-18T03:16:04;143.4;;;18.5;;
26177;SDS011;13924;47.670;10.310;2022-12-18T03:21:34;331.5;;;35.2;;
26177;SDS011;13924;47.670;10.310;2022-12-18T03:26:47;311.6;;;23.9;;
26177;SDS011;13924;47.670;10.310;2022-12-18T03:31:56;114.1;;;18.6;;
26177;SDS011;13924;47.670;10.310;2022-12-18T03:38:31;255.1;;;28.0;;
26177;SDS011;13924;47.670;10.310;2022-12-18T03:47:01;209.3;;;29.1;;
26177;SDS011;13924;47.670;10.310;2022-12-18T03:52:03;218.2;;;31.8;;
26177;SDS011;13924;47.670;10.310;2022-12-18T03:57:13;121.6;;;20.8;;
26177;SDS011;13924;47.670;10.310;2022-12-18T04:08:31;130.0;;;18.7;;
26177;SDS011;13924;47.670;10.310;2022-12-18T04:13:38;114.1;;;19.0;;
26177;SDS011;13924;47.670;10.310;2022-12-18T04:18:57;113.4;;;17.9;;
26177;SDS011;13924;47.670;10.310;2022-12-18T04:24:14;142.5;;;17.8;;
26177;SDS011;13924;47.670;10.310;2022-12-18T04:29:24;139.0;;;18.7;;
26177;SDS011;13924;47.670;10.310;2022-12-18T04:35:08;131.1;;;16.8;;
26177;SDS011;13924;47.670;10.310;2022-12-18T04:40:21;141.6;;;19.1;;
26177;SDS011;13924;47.670;10.310;2022-12-18T04:45:33;165.7;;;18.4;;
26177;SDS011;13924;47.670;10.310;2022-12-18T04:50:46;98.8;;;17.8;;
26177;SDS011;13924;47.670;10.310;2022-12-18T04:56:30;182.3;;;19.9;;
26177;SDS011;13924;47.670;10.310;2022-12-18T05:01:36;60.7;;;17.8;;
26177;SDS011;13924;47.670;10.310;2022-12-18T05:12:11;154.4;;;17.7;;
26177;SDS011;13924;47.670;10.310;2022-12-18T05:17:23;98.6;;;17.3;;
26177;SDS011;13924;47.670;10.310;2022-12-18T05:27:57;80.3;;;16.7;;
26177;SDS011;13924;47.670;10.310;2022-12-18T05:34:35;306.8;;;26.6;;
26177;SDS011;13924;47.670;10.310;2022-12-18T05:42:26;290.8;;;29.8;;
26177;SDS011;13924;47.670;10.310;2022-12-18T05:52:59;98.6;;;17.5;;
26177;SDS011;13924;47.670;10.310;2022-12-18T06:03:48;67.5;;;16.5;;
26177;SDS011;13924;47.670;10.310;2022-12-18T06:09:08;405.1;;;32.8;;
26177;SDS011;13924;47.670;10.310;2022-12-18T06:15:04;271.5;;;20.4;;
26177;SDS011;13924;47.670;10.310;2022-12-18T06:20:34;164.1;;;16.0;;
26177;SDS011;13924;47.670;10.310;2022-12-18T06:25:46;141.4;;;17.4;;
26177;SDS011;13924;47.670;10.310;2022-12-18T06:31:04;95.6;;;15.0;;
26177;SDS011;13924;47.670;10.310;2022-12-18T06:36:23;123.5;;;14.7;;
26177;SDS011;13924;47.670;10.310;2022-12-18T06:41:37;98.0;;;18.0;;
26177;SDS011;13924;47.670;10.310;2022-12-18T06:47:02;104.4;;;19.5;;
26177;SDS011;13924;47.670;10.310;2022-12-18T06:53:46;81.4;;;29.9;;
26177;SDS011;13924;47.670;10.310;2022-12-18T06:59:00;65.5;;;20.5;;
26177;SDS011;13924;47.670;10.310;2022-12-18T07:05:43;126.9;;;25.9;;
26177;SDS011;13924;47.670;10.310;2022-12-18T07:12:12;110.0;;;24.0;;
26177;SDS011;13924;47.670;10.310;2022-12-18T07:17:16;45.8;;;15.8;;
26177;SDS011;13924;47.670;10.310;2022-12-18T07:22:33;30.5;;;12.8;;
26177;SDS011;13924;47.670;10.310;2022-12-18T07:27:47;37.4;;;12.4;;
26177;SDS011;13924;47.670;10.310;2022-12-18T07:32:59;30.6;;;12.0;;
26177;SDS011;13924;47.670;10.310;2022-12-18T07:39:35;43.4;;;17.8;;
26177;SDS011;13924;47.670;10.310;2022-12-18T07:50:14;43.9;;;13.7;;
26177;SDS011;13924;47.670;10.310;2022-12-18T07:55:28;53.2;;;17.8;;
26177;SDS011;13924;47.670;10.310;2022-12-18T08:00:44;37.7;;;12.9;;
26177;SDS011;13924;47.670;10.310;2022-12-18T08:07:31;50.3;;;19.9;;
26177;SDS011;13924;47.670;10.310;2022-12-18T08:12:50;37.1;;;13.8;;
26177;SDS011;13924;47.670;10.310;2022-12-18T08:17:59;38.9;;;15.0;;
26177;SDS011;13924;47.670;10.310;2022-12-18T08:28:38;92.9;;;29.1;;
26177;SDS011;13924;47.670;10.310;2022-12-18T08:34:13;40.6;;;13.2;;
26177;SDS011;13924;47.670;10.310;2022-12-18T08:39:39;33.5;;;12.9;;
26177;SDS011;13924;47.670;10.310;2022-12-18T08:44:48;37.6;;;13.4;;
26177;SDS011;13924;47.670;10.310;2022-12-18T08:50:06;30.8;;;12.4;;
26177;SDS011;13924;47.670;10.310;2022-12-18T08:55:26;45.1;;;15.6;;
26177;SDS011;13924;47.670;10.310;2022-12-18T09:00:39;56.1;;;23.6;;
26177;SDS011;13924;47.670;10.310;2022-12-18T09:05:52;59.1;;;19.6;;
26177;SDS011;13924;47.670;10.310;2022-12-18T09:11:21;40.6;;;15.7;;
26177;SDS011;13924;47.670;10.310;2022-12-18T09:23:20;51.5;;;20.9;;
26177;SDS011;13924;47.670;10.310;2022-12-18T09:28:28;34.9;;;15.5;;
26177;SDS011;13924;47.670;10.310;2022-12-18T09:33:41;42.8;;;16.2;;
26177;SDS011;13924;47.670;10.310;2022-12-18T09:39:05;34.2;;;15.8;;
26177;SDS011;13924;47.670;10.310;2022-12-18T09:44:20;36.4;;;16.1;;
26177;SDS011;13924;47.670;10.310;2022-12-18T09:49:30;33.9;;;14.7;;
26177;SDS011;13924;47.670;10.310;2022-12-18T10:00:06;26.7;;;13.8;;
26177;SDS011;13924;47.670;10.310;2022-12-18T10:05:20;30.3;;;14.7;;
26177;SDS011;13924;47.670;10.310;2022-12-18T10:10:33;36.9;;;17.4;;
26177;SDS011;13924;47.670;10.310;2022-12-18T10:15:51;28.9;;;15.1;;
26177;SDS011;13924;47.670;10.310;2022-12-18T10:20:59;26.7;;;17.5;;
26177;SDS011;13924;47.670;10.310;2022-12-18T10:37:01;25.2;;;14.0;;
26177;SDS011;13924;47.670;10.310;2022-12-18T10:42:09;23.7;;;16.2;;
26177;SDS011;13924;47.670;10.310;2022-12-18T10:47:26;30.4;;;16.7;;
26177;SDS011;13924;47.670;10.310;2022-12-18T10:52:39;27.4;;;15.8;;
26177;SDS011;13924;47.670;10.310;2022-12-18T10:57:52;23.0;;;14.0;;
26177;SDS011;13924;47.670;10.310;2022-12-18T11:02:59;24.5;;;16.7;;
26177;SDS011;13924;47.670;10.310;2022-12-18T11:08:19;25.2;;;14.0;;
26177;SDS011;13924;47.670;10.310;2022-12-18T11:13:27;20.6;;;13.7;;
26177;SDS011;13924;47.670;10.310;2022-12-18T11:18:39;20.9;;;13.2;;
26177;SDS011;13924;47.670;10.310;2022-12-18T11:23:49;21.6;;;15.8;;
26177;SDS011;13924;47.670;10.310;2022-12-18T11:29:15;27.2;;;15.8;;
26177;SDS011;13924;47.670;10.310;2022-12-18T11:34:27;21.2;;;13.3;;
26177;SDS011;13924;47.670;10.310;2022-12-18T11:45:03;21.2;;;13.5;;
26177;SDS011;13924;47.670;10.310;2022-12-18T11:50:17;21.1;;;12.3;;
26177;SDS011;13924;47.670;10.310;2022-12-18T11:55:28;22.3;;;15.6;;
26177;SDS011;13924;47.670;10.310;2022-12-18T12:00:35;16.5;;;13.5;;
26177;SDS011;13924;47.670;10.310;2022-12-18T12:05:57;13.7;;;10.8;;
26177;SDS011;13924;47.670;10.310;2022-12-18T12:16:27;17.6;;;11.7;;
26177;SDS011;13924;47.670;10.310;2022-12-18T12:21:39;18.3;;;12.6;;
26177;SDS011;13924;47.670;10.310;2022-12-18T12:26:54;18.8;;;12.5;;
26177;SDS011;13924;47.670;10.310;2022-12-18T12:32:07;23.0;;;14.8;;
26177;SDS011;13924;47.670;10.310;2022-12-18T12:37:13;20.5;;;16.3;;
26177;SDS011;13924;47.670;10.310;2022-12-18T12:42:22;25.6;;;16.9;;
26177;SDS011;13924;47.670;10.310;2022-12-18T12:47:38;20.6;;;13.8;;
26177;SDS011;13924;47.670;10.310;2022-12-18T12:52:54;26.6;;;16.7;;
26177;SDS011;13924;47.670;10.310;2022-12-18T12:58:08;38.4;;;21.2;;
26177;SDS011;13924;47.670;10.310;2022-12-18T13:03:20;20.1;;;12.6;;
26177;SDS011;13924;47.670;10.310;2022-12-18T13:08:28;24.1;;;14.4;;
26177;SDS011;13924;47.670;10.310;2022-12-18T13:13:55;23.5;;;14.4;;
26177;SDS011;13924;47.670;10.310;2022-12-18T13:18:50;24.2;;;14.7;;
26177;SDS011;13924;47.670;10.310;2022-12-18T13:24:14;26.9;;;15.4;;
26177;SDS011;13924;47.670;10.310;2022-12-18T13:29:12;75.9;;;25.3;;
26177;SDS011;13924;47.670;10.310;2022-12-18T13:34:25;62.1;;;27.0;;
26177;SDS011;13924;47.670;10.310;2022-12-18T13:39:38;23.9;;;14.7;;
26177;SDS011;13924;47.670;10.310;2022-12-18T14:00:53;21.5;;;13.5;;
26177;SDS011;13924;47.670;10.310;2022-12-18T14:06:17;28.4;;;15.3;;
26177;SDS011;13924;47.670;10.310;2022-12-18T14:11:32;17.4;;;12.2;;
26177;SDS011;13924;47.670;10.310;2022-12-18T14:16:45;23.2;;;13.4;;
26177;SDS011;13924;47.670;10.310;2022-12-18T14:27:23;19.8;;;12.1;;
26177;SDS011;13924;47.670;10.310;2022-12-18T14:37:53;14.4;;;9.3;;
26177;SDS011;13924;47.670;10.310;2022-12-18T14:43:08;18.8;;;10.6;;
26177;SDS011;13924;47.670;10.310;2022-12-18T14:53:52;12.9;;;7.9;;
26177;SDS011;13924;47.670;10.310;2022-12-18T14:59:12;11.6;;;7.9;;
26177;SDS011;13924;47.670;10.310;2022-12-18T15:04:25;14.9;;;9.1;;
26177;SDS011;13924;47.670;10.310;2022-12-18T15:14:55;25.4;;;14.9;;
26177;SDS011;13924;47.670;10.310;2022-12-18T15:20:09;98.3;;;36.6;;
26177;SDS011;13924;47.670;10.310;2022-12-18T15:25:26;40.9;;;22.0;;
26177;SDS011;13924;47.670;10.310;2022-12-18T15:30:37;73.1;;;33.0;;
26177;SDS011;13924;47.670;10.310;2022-12-18T15:35:55;87.8;;;38.1;;
26177;SDS011;13924;47.670;10.310;2022-12-18T15:41:00;63.0;;;25.6;;
26177;SDS011;13924;47.670;10.310;2022-12-18T15:46:11;60.3;;;25.6;;
26177;SDS011;13924;47.670;10.310;2022-12-18T15:51:22;123.8;;;42.4;;
26177;SDS011;13924;47.670;10.310;2022-12-18T15:56:34;49.0;;;22.6;;
26177;SDS011;13924;47.670;10.310;2022-12-18T16:07:15;33.5;;;16.9;;
26177;SDS011;13924;47.670;10.310;2022-12-18T16:12:25;38.2;;;22.0;;
26177;SDS011;13924;47.670;10.310;2022-12-18T16:17:38;32.4;;;16.2;;
26177;SDS011;13924;47.670;10.310;2022-12-18T16:28:14;35.4;;;18.2;;
26177;SDS011;13924;47.670;10.310;2022-12-18T16:33:29;33.9;;;19.2;;
26177;SDS011;13924;47.670;10.310;2022-12-18T16:39:03;41.8;;;25.6;;
26177;SDS011;13924;47.670;10.310;2022-12-18T16:49:31;49.9;;;23.0;;
26177;SDS011;13924;47.670;10.310;2022-12-18T16:54:40;58.2;;;31.7;;
26177;SDS011;13924;47.670;10.310;2022-12-18T16:59:50;55.6;;;27.7;;
26177;SDS011;13924;47.670;10.310;2022-12-18T17:05:01;53.8;;;24.7;;
26177;SDS011;13924;47.670;10.310;2022-12-18T17:21:05;46.0;;;23.2;;
26177;SDS011;13924;47.670;10.310;2022-12-18T17:26:12;52.0;;;30.4;;
26177;SDS011;13924;47.670;10.310;2022-12-18T17:36:47;49.4;;;24.0;;
26177;SDS011;13924;47.670;10.310;2022-12-18T17:52:41;56.2;;;24.5;;
26177;SDS011;13924;47.670;10.310;2022-12-18T17:57:52;45.8;;;21.3;;
26177;SDS011;13924;47.670;10.310;2022-12-18T18:03:08;40.1;;;20.1;;
26177;SDS011;13924;47.670;10.310;2022-12-18T18:08:19;51.1;;;24.4;;
26177;SDS011;13924;47.670;10.310;2022-12-18T18:13:29;44.2;;;22.0;;
26177;SDS011;13924;47.670;10.310;2022-12-18T18:18:40;105.8;;;35.2;;
26177;SDS011;13924;47.670;10.310;2022-12-18T18:23:51;48.6;;;24.3;;
26177;SDS011;13924;47.670;10.310;2022-12-18T18:29:03;77.1;;;33.5;;
26177;SDS011;13924;47.670;10.310;2022-12-18T18:34:15;48.9;;;23.7;;
26177;SDS011;13924;47.670;10.310;2022-12-18T18:39:26;45.0;;;22.2;;
26177;SDS011;13924;47.670;10.310;2022-12-18T18:44:37;42.1;;;21.3;;
26177;SDS011;13924;47.670;10.310;2022-12-18T19:00:54;67.8;;;31.2;;
26177;SDS011;13924;47.670;10.310;2022-12-18T19:05:59;57.9;;;34.3;;
26177;SDS011;13924;47.670;10.310;2022-12-18T19:11:12;44.6;;;25.3;;
26177;SDS011;13924;47.670;10.310;2022-12-18T19:16:23;48.6;;;25.4;;
26177;SDS011;13924;47.670;10.310;2022-12-18T19:21:38;47.9;;;23.5;;
26177;SDS011;13924;47.670;10.310;2022-12-18T19:26:52;49.0;;;26.6;;
26177;SDS011;13924;47.670;10.310;2022-12-18T19:32:02;64.3;;;30.6;;
26177;SDS011;13924;47.670;10.310;2022-12-18T19:37:19;59.8;;;30.9;;
26177;SDS011;13924;47.670;10.310;2022-12-18T19:43:11;60.6;;;32.4;;
26177;SDS011;13924;47.670;10.310;2022-12-18T19:48:25;55.2;;;31.4;;
26177;SDS011;13924;47.670;10.310;2022-12-18T19:53:38;61.6;;;30.7;;
26177;SDS011;13924;47.670;10.310;2022-12-18T19:58:58;65.8;;;36.4;;
26177;SDS011;13924;47.670;10.310;2022-12-18T20:04:10;48.9;;;25.7;;
26177;SDS011;13924;47.670;10.310;2022-12-18T20:09:39;50.9;;;26.5;;
26177;SDS011;13924;47.670;10.310;2022-12-18T20:21:16;52.0;;;29.8;;
26177;SDS011;13924;47.670;10.310;2022-12-18T20:26:39;53.3;;;28.4;;
26177;SDS011;13924;47.670;10.310;2022-12-18T20:45:14;43.5;;;22.5;;
26177;SDS011;13924;47.670;10.310;2022-12-18T20:50:30;73.0;;;32.5;;
26177;SDS011;13924;47.670;10.310;2022-12-18T20:57:00;76.4;;;38.0;;
26177;SDS011;13924;47.670;10.310;2022-12-18T21:02:12;44.9;;;30.0;;
26177;SDS011;13924;47.670;10.310;2022-12-18T21:08:47;39.6;;;24.3;;
26177;SDS011;13924;47.670;10.310;2022-12-18T21:13:54;41.3;;;20.8;;
26177;SDS011;13924;47.670;10.310;2022-12-18T21:19:15;38.6;;;19.8;;
26177;SDS011;13924;47.670;10.310;2022-12-18T21:24:42;33.2;;;19.6;;
26177;SDS011;13924;47.670;10.310;2022-12-18T21:40:42;42.1;;;21.9;;
26177;SDS011;13924;47.670;10.310;2022-12-18T21:46:05;89.5;;;38.9;;
26177;SDS011;13924;47.670;10.310;2022-12-18T21:51:16;103.8;;;37.0;;
26177;SDS011;13924;47.670;10.310;2022-12-18T21:56:41;115.4;;;42.5;;
26177;SDS011;13924;47.670;10.310;2022-12-18T22:01:42;99.5;;;37.0;;
26177;SDS011;13924;47.670;10.310;2022-12-18T22:06:54;62.3;;;28.4;;
26177;SDS011;13924;47.670;10.310;2022-12-18T22:12:10;46.1;;;23.7;;
26177;SDS011;13924;47.670;10.310;2022-12-18T22:17:25;36.6;;;20.9;;
26177;SDS011;13924;47.670;10.310;2022-12-18T22:22:36;45.1;;;21.5;;
26177;SDS011;13924;47.670;10.310;2022-12-18T22:27:50;39.0;;;20.4;;
26177;SDS011;13924;47.670;10.310;2022-12-18T22:33:01;39.6;;;20.4;;
26177;SDS011;13924;47.670;10.310;2022-12-18T22:38:13;58.7;;;27.4;;
26177;SDS011;13924;47.670;10.310;2022-12-18T22:43:29;42.3;;;23.0;;
26177;SDS011;13924;47.670;10.310;2022-12-18T22:48:46;53.9;;;25.6;;
26177;SDS011;13924;47.670;10.310;2022-12-18T22:53:59;51.9;;;25.4;;
26177;SDS011;13924;47.670;10.310;2022-12-18T22:59:13;40.6;;;23.2;;
26177;SDS011;13924;47.670;10.310;2022-12-18T23:04:24;48.4;;;31.0;;
26177;SDS011;13924;47.670;10.310;2022-12-18T23:09:36;42.2;;;24.4;;
26177;SDS011;13924;47.670;10.310;2022-12-18T23:14:48;42.0;;;23.4;;
26177;SDS011;13924;47.670;10.310;2022-12-18T23:20:03;52.3;;;26.4;;
26177;SDS011;13924;47.670;10.310;2022-12-18T23:25:16;49.7;;;25.6;;
26177;SDS011;13924;47.670;10.310;2022-12-18T23:30:33;44.4;;;23.1;;
26177;SDS011;13924;47.670;10.310;2022-12-18T23:35:44;50.9;;;26.2;;
26177;SDS011;13924;47.670;10.310;2022-12-18T23:42:31;43.3;;;27.4;;
26177;SDS011;13924;47.670;10.310;2022-12-18T23:47:35;39.3;;;22.0;;
26177;SDS011;13924;47.670;10.310;2022-12-18T23:58:24;44.3;;;23.4;;
